sensor_id;sensor_type;location;lat;lon;timestamp;temperature;humidity
22917;DHT22;11624;53.250;7.456;2024-03-22T00:00:00;16.82;51.56
22917;DHT22;11624;53.250;7.456;2024-03-22T00:02:27;16.82;51.62
22917;DHT22;11624;53.250;7.456;2024-03-22T00:04:55;16.85;51.57
22917;DHT22;11624;53.250;7.456;2024-03-22T00:07:22;16.86;51.59
22917;DHT22;11624;53.250;7.456;2024-03-22T00:09:48;16.84;51.69
22917;DHT22;11624;53.250;7.456;2024-03-22T00:12:16;16.86;51.69
22917;DHT22;11624;53.250;7.456;2024-03-22T00:14:42;16.85;51.67
22917;DHT22;11624;53.250;7.456;2024-03-22T00:17:10;16.82;51.83
22917;DHT22;11624;53.250;7.456;2024-03-22T00:19:36;16.84;51.87
22917;DHT22;11624;53.250;7.456;2024-03-22T00:22:05;16.90;51.75
22917;DHT22;11624;53.250;7.456;2024-03-22T00:24:31;16.94;51.66
22917;DHT22;11624;53.250;7.456;2024-03-22T00:26:59;16.92;51.65
22917;DHT22;11624;53.250;7.456;2024-03-22T00:29:25;16.90;51.71
22917;DHT22;11624;53.250;7.456;2024-03-22T00:31:53;16.86;51.86
22917;DHT22;11624;53.250;7.456;2024-03-22T00:34:19;16.90;51.88
22917;DHT22;11624;53.250;7.456;2024-03-22T00:36:47;16.93;51.76
22917;DHT22;11624;53.250;7.456;2024-03-22T00:39:14;16.94;51.75
22917;DHT22;11624;53.250;7.456;2024-03-22T00:41:42;16.94;51.79
22917;DHT22;11624;53.250;7.456;2024-03-22T00:44:08;16.93;51.85
22917;DHT22;11624;53.250;7.456;2024-03-22T00:46:36;16.89;52.01
22917;DHT22;11624;53.250;7.456;2024-03-22T00:49:03;16.88;52.02
22917;DHT22;11624;53.250;7.456;2024-03-22T00:51:30;16.87;52.10
22917;DHT22;11624;53.250;7.456;2024-03-22T00:53:57;16.92;52.07
22917;DHT22;11624;53.250;7.456;2024-03-22T00:56:25;16.90;52.08
22917;DHT22;11624;53.250;7.456;2024-03-22T00:58:52;16.90;52.14
22917;DHT22;11624;53.250;7.456;2024-03-22T01:01:18;16.91;52.13
22917;DHT22;11624;53.250;7.456;2024-03-22T01:03:46;16.94;52.12
22917;DHT22;11624;53.250;7.456;2024-03-22T01:06:12;16.88;52.24
22917;DHT22;11624;53.250;7.456;2024-03-22T01:08:40;16.93;52.08
22917;DHT22;11624;53.250;7.456;2024-03-22T01:11:06;16.91;52.13
22917;DHT22;11624;53.250;7.456;2024-03-22T01:13:35;16.86;52.31
22917;DHT22;11624;53.250;7.456;2024-03-22T01:16:01;16.89;52.34
22917;DHT22;11624;53.250;7.456;2024-03-22T01:18:29;16.91;52.30
22917;DHT22;11624;53.250;7.456;2024-03-22T01:20:55;16.91;52.33
22917;DHT22;11624;53.250;7.456;2024-03-22T01:23:23;16.95;52.29
22917;DHT22;11624;53.250;7.456;2024-03-22T01:25:49;16.94;52.37
22917;DHT22;11624;53.250;7.456;2024-03-22T01:28:16;16.99;52.37
22917;DHT22;11624;53.250;7.456;2024-03-22T01:30:44;16.99;52.33
22917;DHT22;11624;53.250;7.456;2024-03-22T01:33:11;17.02;52.30
22917;DHT22;11624;53.250;7.456;2024-03-22T01:35:38;17.01;52.33
22917;DHT22;11624;53.250;7.456;2024-03-22T01:38:05;17.01;52.38
22917;DHT22;11624;53.250;7.456;2024-03-22T01:40:32;17.02;52.41
22917;DHT22;11624;53.250;7.456;2024-03-22T01:43:00;16.98;52.53
22917;DHT22;11624;53.250;7.456;2024-03-22T01:45:31;16.98;52.43
22917;DHT22;11624;53.250;7.456;2024-03-22T01:48:00;17.07;52.40
22917;DHT22;11624;53.250;7.456;2024-03-22T01:50:27;17.08;52.46
22917;DHT22;11624;53.250;7.456;2024-03-22T01:52:55;17.11;52.43
22917;DHT22;11624;53.250;7.456;2024-03-22T01:55:22;17.14;52.43
22917;DHT22;11624;53.250;7.456;2024-03-22T01:57:51;17.14;52.40
22917;DHT22;11624;53.250;7.456;2024-03-22T02:00:21;17.16;52.46
22917;DHT22;11624;53.250;7.456;2024-03-22T02:02:48;17.14;52.52
22917;DHT22;11624;53.250;7.456;2024-03-22T02:05:16;17.11;52.62
22917;DHT22;11624;53.250;7.456;2024-03-22T02:07:45;17.16;52.70
22917;DHT22;11624;53.250;7.456;2024-03-22T02:10:12;17.21;52.61
22917;DHT22;11624;53.250;7.456;2024-03-22T02:12:39;17.20;52.62
22917;DHT22;11624;53.250;7.456;2024-03-22T02:15:07;17.18;52.75
22917;DHT22;11624;53.250;7.456;2024-03-22T02:17:35;17.21;52.79
22917;DHT22;11624;53.250;7.456;2024-03-22T02:20:02;17.19;52.85
22917;DHT22;11624;53.250;7.456;2024-03-22T02:22:32;17.19;52.88
22917;DHT22;11624;53.250;7.456;2024-03-22T02:25:00;17.23;52.87
22917;DHT22;11624;53.250;7.456;2024-03-22T02:27:27;17.28;52.85
22917;DHT22;11624;53.250;7.456;2024-03-22T02:29:54;17.30;52.93
22917;DHT22;11624;53.250;7.456;2024-03-22T02:32:21;17.28;53.07
22917;DHT22;11624;53.250;7.456;2024-03-22T02:34:47;17.31;53.02
22917;DHT22;11624;53.250;7.456;2024-03-22T02:37:15;17.32;53.05
22917;DHT22;11624;53.250;7.456;2024-03-22T02:39:41;17.37;53.01
22917;DHT22;11624;53.250;7.456;2024-03-22T02:42:10;17.36;53.08
22917;DHT22;11624;53.250;7.456;2024-03-22T02:44:36;17.39;53.11
22917;DHT22;11624;53.250;7.456;2024-03-22T02:47:08;17.37;53.27
22917;DHT22;11624;53.250;7.456;2024-03-22T02:49:35;17.36;53.37
22917;DHT22;11624;53.250;7.456;2024-03-22T02:52:03;17.37;53.45
22917;DHT22;11624;53.250;7.456;2024-03-22T02:54:29;17.37;53.56
22917;DHT22;11624;53.250;7.456;2024-03-22T02:56:57;17.43;53.49
22917;DHT22;11624;53.250;7.456;2024-03-22T02:59:27;17.48;53.24
22917;DHT22;11624;53.250;7.456;2024-03-22T03:01:54;17.44;53.62
22917;DHT22;11624;53.250;7.456;2024-03-22T03:04:20;17.48;53.66
22917;DHT22;11624;53.250;7.456;2024-03-22T03:06:48;17.50;53.66
22917;DHT22;11624;53.250;7.456;2024-03-22T03:09:14;17.58;53.54
22917;DHT22;11624;53.250;7.456;2024-03-22T03:11:42;17.54;53.65
22917;DHT22;11624;53.250;7.456;2024-03-22T03:14:08;17.58;53.70
22917;DHT22;11624;53.250;7.456;2024-03-22T03:16:37;17.59;53.69
22917;DHT22;11624;53.250;7.456;2024-03-22T03:19:03;17.61;53.74
22917;DHT22;11624;53.250;7.456;2024-03-22T03:21:31;17.64;53.70
22917;DHT22;11624;53.250;7.456;2024-03-22T03:23:57;17.61;53.83
22917;DHT22;11624;53.250;7.456;2024-03-22T03:26:24;17.58;53.97
22917;DHT22;11624;53.250;7.456;2024-03-22T03:28:51;17.62;53.92
22917;DHT22;11624;53.250;7.456;2024-03-22T03:31:18;17.61;53.98
22917;DHT22;11624;53.250;7.456;2024-03-22T03:33:46;17.58;54.07
22917;DHT22;11624;53.250;7.456;2024-03-22T03:36:13;17.61;53.91
22917;DHT22;11624;53.250;7.456;2024-03-22T03:38:40;17.62;53.89
22917;DHT22;11624;53.250;7.456;2024-03-22T03:41:07;17.61;53.86
22917;DHT22;11624;53.250;7.456;2024-03-22T03:43:34;17.58;53.91
22917;DHT22;11624;53.250;7.456;2024-03-22T03:46:01;17.55;53.91
22917;DHT22;11624;53.250;7.456;2024-03-22T03:48:28;17.53;54.03
22917;DHT22;11624;53.250;7.456;2024-03-22T03:50:57;17.49;54.06
22917;DHT22;11624;53.250;7.456;2024-03-22T03:53:28;17.46;54.18
22917;DHT22;11624;53.250;7.456;2024-03-22T03:55:56;17.47;54.25
22917;DHT22;11624;53.250;7.456;2024-03-22T03:58:22;17.45;54.34
22917;DHT22;11624;53.250;7.456;2024-03-22T04:00:50;17.41;54.45
22917;DHT22;11624;53.250;7.456;2024-03-22T04:03:16;17.43;54.48
22917;DHT22;11624;53.250;7.456;2024-03-22T04:05:44;17.41;54.47
22917;DHT22;11624;53.250;7.456;2024-03-22T04:08:11;17.44;54.42
22917;DHT22;11624;53.250;7.456;2024-03-22T04:10:39;17.43;54.56
22917;DHT22;11624;53.250;7.456;2024-03-22T04:13:05;17.45;54.58
22917;DHT22;11624;53.250;7.456;2024-03-22T04:15:35;17.47;54.55
22917;DHT22;11624;53.250;7.456;2024-03-22T04:18:01;17.49;54.59
22917;DHT22;11624;53.250;7.456;2024-03-22T04:20:28;17.52;54.63
22917;DHT22;11624;53.250;7.456;2024-03-22T04:22:55;17.56;54.55
22917;DHT22;11624;53.250;7.456;2024-03-22T04:25:24;17.59;54.51
22917;DHT22;11624;53.250;7.456;2024-03-22T04:27:50;17.58;54.62
22917;DHT22;11624;53.250;7.456;2024-03-22T04:30:17;17.54;54.65
22917;DHT22;11624;53.250;7.456;2024-03-22T04:32:46;17.59;54.63
22917;DHT22;11624;53.250;7.456;2024-03-22T04:35:13;17.59;54.69
22917;DHT22;11624;53.250;7.456;2024-03-22T04:37:40;17.61;54.70
22917;DHT22;11624;53.250;7.456;2024-03-22T04:40:08;17.63;54.73
22917;DHT22;11624;53.250;7.456;2024-03-22T04:42:38;17.63;54.73
22917;DHT22;11624;53.250;7.456;2024-03-22T04:45:04;17.64;54.77
22917;DHT22;11624;53.250;7.456;2024-03-22T04:47:32;17.68;54.71
22917;DHT22;11624;53.250;7.456;2024-03-22T04:49:59;17.68;54.73
22917;DHT22;11624;53.250;7.456;2024-03-22T04:52:26;17.67;54.73
22917;DHT22;11624;53.250;7.456;2024-03-22T04:54:53;17.64;54.93
22917;DHT22;11624;53.250;7.456;2024-03-22T04:57:20;17.69;54.83
22917;DHT22;11624;53.250;7.456;2024-03-22T04:59:48;17.70;54.79
22917;DHT22;11624;53.250;7.456;2024-03-22T05:02:15;17.75;54.71
22917;DHT22;11624;53.250;7.456;2024-03-22T05:04:43;17.70;54.81
22917;DHT22;11624;53.250;7.456;2024-03-22T05:07:11;17.73;54.81
22917;DHT22;11624;53.250;7.456;2024-03-22T05:09:37;17.77;54.71
22917;DHT22;11624;53.250;7.456;2024-03-22T05:12:05;17.79;54.72
22917;DHT22;11624;53.250;7.456;2024-03-22T05:14:31;17.76;54.76
22917;DHT22;11624;53.250;7.456;2024-03-22T05:17:00;17.76;54.83
22917;DHT22;11624;53.250;7.456;2024-03-22T05:19:26;17.70;55.02
22917;DHT22;11624;53.250;7.456;2024-03-22T05:21:54;17.78;54.86
22917;DHT22;11624;53.250;7.456;2024-03-22T05:24:20;17.76;54.94
22917;DHT22;11624;53.250;7.456;2024-03-22T05:26:48;17.73;55.10
22917;DHT22;11624;53.250;7.456;2024-03-22T05:29:14;17.68;55.25
22917;DHT22;11624;53.250;7.456;2024-03-22T05:31:46;17.72;54.70
22917;DHT22;11624;53.250;7.456;2024-03-22T05:34:14;17.75;55.05
22917;DHT22;11624;53.250;7.456;2024-03-22T05:36:42;17.79;55.00
22917;DHT22;11624;53.250;7.456;2024-03-22T05:39:09;17.74;55.20
22917;DHT22;11624;53.250;7.456;2024-03-22T05:41:38;17.75;55.19
22917;DHT22;11624;53.250;7.456;2024-03-22T05:44:05;17.76;55.14
22917;DHT22;11624;53.250;7.456;2024-03-22T05:46:32;17.77;55.23
22917;DHT22;11624;53.250;7.456;2024-03-22T05:48:58;17.81;55.10
22917;DHT22;11624;53.250;7.456;2024-03-22T05:51:27;17.84;54.96
22917;DHT22;11624;53.250;7.456;2024-03-22T05:53:54;17.83;54.99
22917;DHT22;11624;53.250;7.456;2024-03-22T05:56:21;17.82;55.11
22917;DHT22;11624;53.250;7.456;2024-03-22T05:58:48;17.82;55.06
22917;DHT22;11624;53.250;7.456;2024-03-22T06:01:15;17.81;55.05
22917;DHT22;11624;53.250;7.456;2024-03-22T06:03:41;17.76;55.24
22917;DHT22;11624;53.250;7.456;2024-03-22T06:06:09;17.82;55.07
22917;DHT22;11624;53.250;7.456;2024-03-22T06:08:37;17.77;55.18
22917;DHT22;11624;53.250;7.456;2024-03-22T06:11:07;17.74;55.36
22917;DHT22;11624;53.250;7.456;2024-03-22T06:13:33;17.77;55.21
22917;DHT22;11624;53.250;7.456;2024-03-22T06:16:02;17.75;55.32
22917;DHT22;11624;53.250;7.456;2024-03-22T06:18:29;17.76;55.23
22917;DHT22;11624;53.250;7.456;2024-03-22T06:20:57;17.80;55.21
22917;DHT22;11624;53.250;7.456;2024-03-22T06:23:23;17.75;55.41
22917;DHT22;11624;53.250;7.456;2024-03-22T06:25:56;17.68;55.01
22917;DHT22;11624;53.250;7.456;2024-03-22T06:28:22;17.65;55.73
22917;DHT22;11624;53.250;7.456;2024-03-22T06:30:50;17.58;56.11
22917;DHT22;11624;53.250;7.456;2024-03-22T06:33:16;17.52;56.33
22917;DHT22;11624;53.250;7.456;2024-03-22T06:35:45;17.55;56.45
22917;DHT22;11624;53.250;7.456;2024-03-22T06:38:12;17.53;56.52
22917;DHT22;11624;53.250;7.456;2024-03-22T06:40:40;17.52;56.61
22917;DHT22;11624;53.250;7.456;2024-03-22T06:43:08;17.49;56.72
22917;DHT22;11624;53.250;7.456;2024-03-22T06:45:36;17.43;56.87
22917;DHT22;11624;53.250;7.456;2024-03-22T06:48:02;17.37;56.97
22917;DHT22;11624;53.250;7.456;2024-03-22T06:50:30;17.39;56.97
22917;DHT22;11624;53.250;7.456;2024-03-22T06:52:56;17.31;57.21
22917;DHT22;11624;53.250;7.456;2024-03-22T06:55:24;17.35;57.14
22917;DHT22;11624;53.250;7.456;2024-03-22T06:57:50;17.36;57.14
22917;DHT22;11624;53.250;7.456;2024-03-22T07:00:20;17.41;57.04
22917;DHT22;11624;53.250;7.456;2024-03-22T07:02:46;17.39;57.17
22917;DHT22;11624;53.250;7.456;2024-03-22T07:05:13;17.41;57.22
22917;DHT22;11624;53.250;7.456;2024-03-22T07:07:40;17.36;57.30
22917;DHT22;11624;53.250;7.456;2024-03-22T07:10:08;17.36;57.39
22917;DHT22;11624;53.250;7.456;2024-03-22T07:12:35;17.34;57.52
22917;DHT22;11624;53.250;7.456;2024-03-22T07:15:02;17.33;57.45
22917;DHT22;11624;53.250;7.456;2024-03-22T07:17:31;17.30;57.49
22917;DHT22;11624;53.250;7.456;2024-03-22T07:19:58;17.34;57.22
22917;DHT22;11624;53.250;7.456;2024-03-22T07:22:25;17.29;57.22
22917;DHT22;11624;53.250;7.456;2024-03-22T07:24:51;17.31;57.11
22917;DHT22;11624;53.250;7.456;2024-03-22T07:27:19;17.29;57.14
22917;DHT22;11624;53.250;7.456;2024-03-22T07:29:45;17.18;57.23
22917;DHT22;11624;53.250;7.456;2024-03-22T07:32:13;17.16;57.32
22917;DHT22;11624;53.250;7.456;2024-03-22T07:34:41;17.19;57.39
22917;DHT22;11624;53.250;7.456;2024-03-22T07:37:08;17.22;57.32
22917;DHT22;11624;53.250;7.456;2024-03-22T07:39:34;17.22;57.22
22917;DHT22;11624;53.250;7.456;2024-03-22T07:42:02;17.19;57.32
22917;DHT22;11624;53.250;7.456;2024-03-22T07:44:29;17.19;57.40
22917;DHT22;11624;53.250;7.456;2024-03-22T07:46:56;17.26;57.39
22917;DHT22;11624;53.250;7.456;2024-03-22T07:49:22;17.30;57.21
22917;DHT22;11624;53.250;7.456;2024-03-22T07:51:51;17.19;57.29
22917;DHT22;11624;53.250;7.456;2024-03-22T07:54:19;17.21;57.35
22917;DHT22;11624;53.250;7.456;2024-03-22T07:56:46;17.25;57.17
22917;DHT22;11624;53.250;7.456;2024-03-22T07:59:13;17.18;57.24
22917;DHT22;11624;53.250;7.456;2024-03-22T08:01:40;17.19;57.19
22917;DHT22;11624;53.250;7.456;2024-03-22T08:04:06;17.19;57.18
22917;DHT22;11624;53.250;7.456;2024-03-22T08:06:34;17.20;57.35
22917;DHT22;11624;53.250;7.456;2024-03-22T08:09:02;17.21;57.36
22917;DHT22;11624;53.250;7.456;2024-03-22T08:11:29;17.18;57.42
22917;DHT22;11624;53.250;7.456;2024-03-22T08:13:57;17.14;57.49
22917;DHT22;11624;53.250;7.456;2024-03-22T08:16:29;17.20;57.43
22917;DHT22;11624;53.250;7.456;2024-03-22T08:18:56;17.17;57.53
22917;DHT22;11624;53.250;7.456;2024-03-22T08:21:23;17.10;57.64
22917;DHT22;11624;53.250;7.456;2024-03-22T08:23:50;17.09;57.73
22917;DHT22;11624;53.250;7.456;2024-03-22T08:26:19;17.06;57.91
22917;DHT22;11624;53.250;7.456;2024-03-22T08:28:46;16.92;58.19
22917;DHT22;11624;53.250;7.456;2024-03-22T08:31:14;16.95;58.16
22917;DHT22;11624;53.250;7.456;2024-03-22T08:33:40;16.93;58.34
22917;DHT22;11624;53.250;7.456;2024-03-22T08:36:08;16.95;58.36
22917;DHT22;11624;53.250;7.456;2024-03-22T08:38:34;16.89;58.51
22917;DHT22;11624;53.250;7.456;2024-03-22T08:41:02;16.90;58.52
22917;DHT22;11624;53.250;7.456;2024-03-22T08:43:30;16.91;58.44
22917;DHT22;11624;53.250;7.456;2024-03-22T08:45:58;16.99;58.67
22917;DHT22;11624;53.250;7.456;2024-03-22T08:48:24;17.01;58.51
22917;DHT22;11624;53.250;7.456;2024-03-22T08:50:52;17.03;58.51
22917;DHT22;11624;53.250;7.456;2024-03-22T08:53:18;17.06;58.60
22917;DHT22;11624;53.250;7.456;2024-03-22T08:55:46;17.06;58.73
22917;DHT22;11624;53.250;7.456;2024-03-22T08:58:13;17.17;58.62
22917;DHT22;11624;53.250;7.456;2024-03-22T09:00:43;17.16;58.60
22917;DHT22;11624;53.250;7.456;2024-03-22T09:03:09;17.15;58.69
22917;DHT22;11624;53.250;7.456;2024-03-22T09:05:37;17.16;58.67
22917;DHT22;11624;53.250;7.456;2024-03-22T09:08:04;17.16;58.66
22917;DHT22;11624;53.250;7.456;2024-03-22T09:10:31;17.13;58.99
22917;DHT22;11624;53.250;7.456;2024-03-22T09:12:58;17.17;58.85
22917;DHT22;11624;53.250;7.456;2024-03-22T09:15:25;17.22;58.87
22917;DHT22;11624;53.250;7.456;2024-03-22T09:17:53;17.25;58.67
22917;DHT22;11624;53.250;7.456;2024-03-22T09:20:20;17.31;58.74
22917;DHT22;11624;53.250;7.456;2024-03-22T09:22:47;17.23;58.95
22917;DHT22;11624;53.250;7.456;2024-03-22T09:25:15;17.23;58.90
22917;DHT22;11624;53.250;7.456;2024-03-22T09:27:41;17.26;58.77
22917;DHT22;11624;53.250;7.456;2024-03-22T09:30:09;17.23;58.96
22917;DHT22;11624;53.250;7.456;2024-03-22T09:32:36;17.23;58.98
22917;DHT22;11624;53.250;7.456;2024-03-22T09:35:06;17.21;58.90
22917;DHT22;11624;53.250;7.456;2024-03-22T09:37:33;17.23;59.01
22917;DHT22;11624;53.250;7.456;2024-03-22T09:40:00;17.19;59.17
22917;DHT22;11624;53.250;7.456;2024-03-22T09:42:28;17.17;59.04
22917;DHT22;11624;53.250;7.456;2024-03-22T09:44:57;17.22;59.17
22917;DHT22;11624;53.250;7.456;2024-03-22T09:47:25;17.18;59.36
22917;DHT22;11624;53.250;7.456;2024-03-22T09:49:53;17.23;59.19
22917;DHT22;11624;53.250;7.456;2024-03-22T09:52:22;17.18;59.10
22917;DHT22;11624;53.250;7.456;2024-03-22T09:54:49;17.10;59.53
22917;DHT22;11624;53.250;7.456;2024-03-22T09:57:18;17.23;59.37
22917;DHT22;11624;53.250;7.456;2024-03-22T09:59:45;17.25;59.26
22917;DHT22;11624;53.250;7.456;2024-03-22T10:02:12;17.30;59.29
22917;DHT22;11624;53.250;7.456;2024-03-22T10:04:40;17.34;59.24
22917;DHT22;11624;53.250;7.456;2024-03-22T10:07:07;17.37;59.09
22917;DHT22;11624;53.250;7.456;2024-03-22T10:09:37;17.35;59.09
22917;DHT22;11624;53.250;7.456;2024-03-22T10:12:04;17.35;59.07
22917;DHT22;11624;53.250;7.456;2024-03-22T10:14:31;17.37;59.00
22917;DHT22;11624;53.250;7.456;2024-03-22T10:16:59;17.35;59.03
22917;DHT22;11624;53.250;7.456;2024-03-22T10:19:27;17.40;58.88
22917;DHT22;11624;53.250;7.456;2024-03-22T10:22:00;17.34;58.52
22917;DHT22;11624;53.250;7.456;2024-03-22T10:24:27;17.38;59.06
22917;DHT22;11624;53.250;7.456;2024-03-22T10:26:56;17.40;59.12
22917;DHT22;11624;53.250;7.456;2024-03-22T10:29:23;17.43;59.20
22917;DHT22;11624;53.250;7.456;2024-03-22T10:31:51;17.45;59.12
22917;DHT22;11624;53.250;7.456;2024-03-22T10:34:21;17.48;59.10
22917;DHT22;11624;53.250;7.456;2024-03-22T10:36:48;17.46;59.01
22917;DHT22;11624;53.250;7.456;2024-03-22T10:39:17;17.50;59.11
22917;DHT22;11624;53.250;7.456;2024-03-22T10:41:43;17.50;59.15
22917;DHT22;11624;53.250;7.456;2024-03-22T10:44:12;17.59;58.89
22917;DHT22;11624;53.250;7.456;2024-03-22T10:46:44;17.48;58.45
22917;DHT22;11624;53.250;7.456;2024-03-22T10:49:15;17.52;58.64
22917;DHT22;11624;53.250;7.456;2024-03-22T10:51:43;17.51;58.91
22917;DHT22;11624;53.250;7.456;2024-03-22T10:54:15;17.59;58.83
22917;DHT22;11624;53.250;7.456;2024-03-22T10:56:43;17.63;58.83
22917;DHT22;11624;53.250;7.456;2024-03-22T10:59:14;17.60;58.39
22917;DHT22;11624;53.250;7.456;2024-03-22T11:01:45;17.51;58.50
22917;DHT22;11624;53.250;7.456;2024-03-22T11:04:15;17.56;58.41
22917;DHT22;11624;53.250;7.456;2024-03-22T11:06:47;17.44;58.30
22917;DHT22;11624;53.250;7.456;2024-03-22T11:09:20;17.50;58.51
22917;DHT22;11624;53.250;7.456;2024-03-22T11:11:47;17.62;58.64
22917;DHT22;11624;53.250;7.456;2024-03-22T11:14:16;17.70;58.50
22917;DHT22;11624;53.250;7.456;2024-03-22T11:16:43;17.69;58.21
22917;DHT22;11624;53.250;7.456;2024-03-22T11:19:11;17.65;58.29
22917;DHT22;11624;53.250;7.456;2024-03-22T11:21:38;17.55;58.58
22917;DHT22;11624;53.250;7.456;2024-03-22T11:24:06;17.52;58.48
22917;DHT22;11624;53.250;7.456;2024-03-22T11:26:32;17.58;58.60
22917;DHT22;11624;53.250;7.456;2024-03-22T11:29:00;17.58;58.27
22917;DHT22;11624;53.250;7.456;2024-03-22T11:31:28;17.46;58.55
22917;DHT22;11624;53.250;7.456;2024-03-22T11:33:56;17.49;58.91
22917;DHT22;11624;53.250;7.456;2024-03-22T11:36:23;17.54;58.87
22917;DHT22;11624;53.250;7.456;2024-03-22T11:38:50;17.65;58.54
22917;DHT22;11624;53.250;7.456;2024-03-22T11:41:21;17.63;58.61
22917;DHT22;11624;53.250;7.456;2024-03-22T11:43:50;17.59;58.83
22917;DHT22;11624;53.250;7.456;2024-03-22T11:46:17;17.72;58.82
22917;DHT22;11624;53.250;7.456;2024-03-22T11:48:52;17.77;58.43
22917;DHT22;11624;53.250;7.456;2024-03-22T11:51:19;17.79;58.42
22917;DHT22;11624;53.250;7.456;2024-03-22T11:53:50;17.81;58.01
22917;DHT22;11624;53.250;7.456;2024-03-22T11:56:18;17.81;58.16
22917;DHT22;11624;53.250;7.456;2024-03-22T11:58:47;17.77;57.71
22917;DHT22;11624;53.250;7.456;2024-03-22T12:01:14;17.81;58.13
22917;DHT22;11624;53.250;7.456;2024-03-22T12:03:43;17.89;57.90
22917;DHT22;11624;53.250;7.456;2024-03-22T12:06:11;17.88;57.74
22917;DHT22;11624;53.250;7.456;2024-03-22T12:08:39;17.77;57.82
22917;DHT22;11624;53.250;7.456;2024-03-22T12:11:07;17.80;57.93
22917;DHT22;11624;53.250;7.456;2024-03-22T12:13:35;17.74;57.64
22917;DHT22;11624;53.250;7.456;2024-03-22T12:16:03;17.74;57.72
22917;DHT22;11624;53.250;7.456;2024-03-22T12:18:30;17.70;57.88
22917;DHT22;11624;53.250;7.456;2024-03-22T12:20:57;17.75;58.16
22917;DHT22;11624;53.250;7.456;2024-03-22T12:23:26;17.81;57.66
22917;DHT22;11624;53.250;7.456;2024-03-22T12:25:52;17.87;57.91
22917;DHT22;11624;53.250;7.456;2024-03-22T12:28:21;17.91;57.71
22917;DHT22;11624;53.250;7.456;2024-03-22T12:30:48;17.89;57.52
22917;DHT22;11624;53.250;7.456;2024-03-22T12:33:15;17.80;57.61
22917;DHT22;11624;53.250;7.456;2024-03-22T12:35:42;17.79;57.77
22917;DHT22;11624;53.250;7.456;2024-03-22T12:38:09;17.80;57.85
22917;DHT22;11624;53.250;7.456;2024-03-22T12:40:39;17.85;57.49
22917;DHT22;11624;53.250;7.456;2024-03-22T12:43:09;17.85;57.44
22917;DHT22;11624;53.250;7.456;2024-03-22T12:45:36;17.88;57.38
22917;DHT22;11624;53.250;7.456;2024-03-22T12:48:04;17.82;57.22
22917;DHT22;11624;53.250;7.456;2024-03-22T12:50:31;17.79;57.32
22917;DHT22;11624;53.250;7.456;2024-03-22T12:53:00;17.80;57.42
22917;DHT22;11624;53.250;7.456;2024-03-22T12:55:27;17.79;57.27
22917;DHT22;11624;53.250;7.456;2024-03-22T12:57:58;17.76;56.88
22917;DHT22;11624;53.250;7.456;2024-03-22T13:00:25;17.67;57.01
22917;DHT22;11624;53.250;7.456;2024-03-22T13:02:53;17.63;57.13
22917;DHT22;11624;53.250;7.456;2024-03-22T13:05:19;17.62;57.36
22917;DHT22;11624;53.250;7.456;2024-03-22T13:07:46;17.64;57.16
22917;DHT22;11624;53.250;7.456;2024-03-22T13:10:13;17.72;56.75
22917;DHT22;11624;53.250;7.456;2024-03-22T13:12:40;17.72;56.99
22917;DHT22;11624;53.250;7.456;2024-03-22T13:15:08;17.75;56.82
22917;DHT22;11624;53.250;7.456;2024-03-22T13:17:36;17.87;56.73
22917;DHT22;11624;53.250;7.456;2024-03-22T13:20:02;17.88;56.55
22917;DHT22;11624;53.250;7.456;2024-03-22T13:22:36;17.80;56.22
22917;DHT22;11624;53.250;7.456;2024-03-22T13:25:03;17.77;56.32
22917;DHT22;11624;53.250;7.456;2024-03-22T13:27:33;17.70;56.42
22917;DHT22;11624;53.250;7.456;2024-03-22T13:30:00;17.64;56.40
22917;DHT22;11624;53.250;7.456;2024-03-22T13:32:29;17.68;56.19
22917;DHT22;11624;53.250;7.456;2024-03-22T13:34:55;17.60;56.29
22917;DHT22;11624;53.250;7.456;2024-03-22T13:37:22;17.59;56.33
22917;DHT22;11624;53.250;7.456;2024-03-22T13:39:49;17.54;56.30
22917;DHT22;11624;53.250;7.456;2024-03-22T13:42:16;17.55;56.47
22917;DHT22;11624;53.250;7.456;2024-03-22T13:44:43;17.59;56.53
22917;DHT22;11624;53.250;7.456;2024-03-22T13:47:10;17.63;56.26
22917;DHT22;11624;53.250;7.456;2024-03-22T13:49:38;17.58;56.10
22917;DHT22;11624;53.250;7.456;2024-03-22T13:52:07;17.54;56.13
22917;DHT22;11624;53.250;7.456;2024-03-22T13:54:33;17.47;56.36
22917;DHT22;11624;53.250;7.456;2024-03-22T13:57:01;17.45;56.49
22917;DHT22;11624;53.250;7.456;2024-03-22T13:59:28;17.46;56.36
22917;DHT22;11624;53.250;7.456;2024-03-22T14:01:55;17.35;56.39
22917;DHT22;11624;53.250;7.456;2024-03-22T14:04:22;17.35;56.32
22917;DHT22;11624;53.250;7.456;2024-03-22T14:06:53;17.35;56.20
22917;DHT22;11624;53.250;7.456;2024-03-22T14:09:20;17.32;56.05
22917;DHT22;11624;53.250;7.456;2024-03-22T14:11:47;17.33;55.96
22917;DHT22;11624;53.250;7.456;2024-03-22T14:14:14;17.32;55.92
22917;DHT22;11624;53.250;7.456;2024-03-22T14:16:42;17.34;56.04
22917;DHT22;11624;53.250;7.456;2024-03-22T14:19:08;17.35;56.23
22917;DHT22;11624;53.250;7.456;2024-03-22T14:21:37;17.34;56.06
22917;DHT22;11624;53.250;7.456;2024-03-22T14:24:06;17.36;56.20
22917;DHT22;11624;53.250;7.456;2024-03-22T14:26:33;17.32;56.49
22917;DHT22;11624;53.250;7.456;2024-03-22T14:29:00;17.40;56.30
22917;DHT22;11624;53.250;7.456;2024-03-22T14:31:27;17.47;56.19
22917;DHT22;11624;53.250;7.456;2024-03-22T14:33:53;17.51;56.19
22917;DHT22;11624;53.250;7.456;2024-03-22T14:36:21;17.52;56.14
22917;DHT22;11624;53.250;7.456;2024-03-22T14:38:47;17.59;56.03
22917;DHT22;11624;53.250;7.456;2024-03-22T14:41:16;17.44;54.86
22917;DHT22;11624;53.250;7.456;2024-03-22T14:43:43;17.36;54.97
22917;DHT22;11624;53.250;7.456;2024-03-22T14:46:10;17.24;55.12
22917;DHT22;11624;53.250;7.456;2024-03-22T14:48:37;17.20;54.71
22917;DHT22;11624;53.250;7.456;2024-03-22T14:51:04;17.22;54.53
22917;DHT22;11624;53.250;7.456;2024-03-22T14:53:30;17.20;54.30
22917;DHT22;11624;53.250;7.456;2024-03-22T14:55:59;17.20;54.55
22917;DHT22;11624;53.250;7.456;2024-03-22T14:58:29;17.23;54.19
22917;DHT22;11624;53.250;7.456;2024-03-22T15:00:57;17.26;54.53
22917;DHT22;11624;53.250;7.456;2024-03-22T15:03:24;17.35;54.40
22917;DHT22;11624;53.250;7.456;2024-03-22T15:05:52;17.36;54.36
22917;DHT22;11624;53.250;7.456;2024-03-22T15:08:20;17.37;53.87
22917;DHT22;11624;53.250;7.456;2024-03-22T15:10:47;17.31;54.15
22917;DHT22;11624;53.250;7.456;2024-03-22T15:13:15;17.34;54.11
22917;DHT22;11624;53.250;7.456;2024-03-22T15:15:52;17.33;53.33
22917;DHT22;11624;53.250;7.456;2024-03-22T15:18:19;17.24;53.69
22917;DHT22;11624;53.250;7.456;2024-03-22T15:20:47;17.10;53.96
22917;DHT22;11624;53.250;7.456;2024-03-22T15:23:13;17.05;54.01
22917;DHT22;11624;53.250;7.456;2024-03-22T15:25:41;17.02;54.00
22917;DHT22;11624;53.250;7.456;2024-03-22T15:28:07;16.98;54.03
22917;DHT22;11624;53.250;7.456;2024-03-22T15:30:35;16.96;54.00